Time;durP1;ratioP1;P1;durP2;ratioP2;P2;SDS_P1;SDS_P2;PMS_P1;PMS_P2;Temp;Humidity;BMP_temperature;BMP_pressure;BME280_temperature;BME280_humidity;BME280_pressure;Samples;Min_cycle;Max_cycle;Signal;HPM_P1;HPM_P2
2022/01/27 00:01:37;;;;;;;;;;;;;;;5.50;67.22;98990.09;5079946;28;1243;-89
2022/01/27 00:04:11;;;;;;;;;;;;;;;5.49;67.31;98983.94;5079231;28;1227;-89
2022/01/27 00:06:39;;;;;;;;;;;;;;;5.50;67.44;98968.75;5079253;28;1267;-89
2022/01/27 00:09:18;;;;;;;;;;;;;;;5.49;67.06;98962.59;5079531;28;1332;-88
2022/01/27 00:11:46;;;;;;;;;;;;;;;5.50;67.22;98953.56;5080181;28;1965;-88
2022/01/27 00:14:14;;;;;;;;;;;;;;;5.50;67.36;98952.72;5079395;28;1223;-88
2022/01/27 00:16:44;;;;;;;;;;;;;;;5.49;67.07;98943.91;5079089;28;1902;-88
2022/01/27 00:19:10;;;;;;;;;;;;;;;5.49;66.83;98951.09;5096007;28;1184;-88
2022/01/27 00:21:37;;;;;;;;;;;;;;;5.48;66.99;98944.94;5096185;28;1242;-89
2022/01/27 00:24:04;;;;;;;;;;;;;;;5.47;67.14;98938.78;5079236;28;1266;-88
2022/01/27 00:26:30;;;;;;;;;;;;;;;5.47;67.13;98925.44;5079399;28;1541;-88
2022/01/27 00:28:57;;;;;;;;;;;;;;;5.46;67.29;98918.44;5082821;28;1509;-89
2022/01/27 00:31:23;;;;;;;;;;;;;;;5.47;67.21;98924.59;5079897;28;1334;-88
2022/01/27 00:33:50;;;;;;;;;;;;;;;5.47;67.13;98912.09;5099229;28;1299;-89
2022/01/27 00:36:16;;;;;;;;;;;;;;;5.47;67.09;98896.06;5099338;28;1894;-88
2022/01/27 00:38:43;;;;;;;;;;;;;;;5.45;67.23;98882.13;5098779;28;1404;-89
2022/01/27 00:41:09;;;;;;;;;;;;;;;5.44;67.39;98875.16;5103495;28;1466;-88
2022/01/27 00:43:36;;;;;;;;;;;;;;;5.45;67.12;98879.44;5131978;27;1374;-88
2022/01/27 00:46:02;;;;;;;;;;;;;;;5.45;67.41;98873.31;5116487;28;1202;-90
2022/01/27 00:48:29;;;;;;;;;;;;;;;5.44;67.37;98866.31;5115624;28;1235;-88
2022/01/27 00:50:59;;;;;;;;;;;;;;;5.44;67.22;98855.63;5131034;27;1623;-88
2022/01/27 00:53:35;;;;;;;;;;;;;;;5.43;67.27;98857.50;5136312;27;1493;-88
2022/01/27 00:56:15;;;;;;;;;;;;;;;5.44;67.22;98847.63;5115426;28;1968;-88
2022/01/27 00:58:51;;;;;;;;;;;;;;;5.43;67.17;98840.66;5136228;27;1241;-88
2022/01/27 01:01:21;;;;;;;;;;;;;;;5.43;67.09;98840.66;5126341;27;1550;-88
2022/01/27 01:03:51;;;;;;;;;;;;;;;5.43;67.27;98833.47;5118828;27;1783;-88
2022/01/27 01:06:31;;;;;;;;;;;;;;;5.43;67.17;98816.63;5118863;27;1264;-88
2022/01/27 01:14:32;;;;;;;;;;;;;;;5.41;67.12;98784.00;5075464;27;1397;-88
2022/01/27 01:17:08;;;;;;;;;;;;;;;5.41;67.05;98781.34;5123902;27;1910;-88
2022/01/27 01:19:49;;;;;;;;;;;;;;;5.40;67.35;98772.50;5139247;27;1324;-89
2022/01/27 01:30:45;;;;;;;;;;;;;;;5.40;67.39;98724.47;5118592;27;1265;-88
2022/01/27 01:33:19;;;;;;;;;;;;;;;5.39;67.21;98706.00;5118420;27;1290;-89
2022/01/27 01:35:48;;;;;;;;;;;;;;;5.39;67.34;98709.50;5135847;27;1917;-88
2022/01/27 01:38:15;;;;;;;;;;;;;;;5.38;67.26;98689.19;5138489;27;1451;-89
2022/01/27 01:40:41;;;;;;;;;;;;;;;5.38;67.31;98680.34;5138045;27;1519;-89
2022/01/27 01:43:08;;;;;;;;;;;;;;;5.38;67.38;98669.66;5118510;27;1319;-88
2022/01/27 01:45:36;;;;;;;;;;;;;;;5.38;67.35;98662.50;5119016;27;1650;-87
2022/01/27 01:48:02;;;;;;;;;;;;;;;5.37;67.59;98660.84;5118586;27;1452;-88
2022/01/27 01:50:29;;;;;;;;;;;;;;;5.36;67.56;98659.22;5126176;27;1200;-89
2022/01/27 01:52:55;;;;;;;;;;;;;;;5.36;67.21;98661.91;5135682;27;1316;-88
2022/01/27 01:55:23;;;;;;;;;;;;;;;5.36;67.45;98656.56;5138770;27;1225;-89
2022/01/27 01:57:50;;;;;;;;;;;;;;;5.35;67.47;98641.56;5122580;27;1905;-89
2022/01/27 02:00:17;;;;;;;;;;;;;;;5.35;67.50;98636.22;5138922;27;1283;-88
2022/01/27 02:02:43;;;;;;;;;;;;;;;5.36;67.61;98616.50;5138984;27;1186;-88
2022/01/27 02:05:10;;;;;;;;;;;;;;;5.35;67.50;98608.72;5138644;27;1366;-89
2022/01/27 02:07:47;;;;;;;;;;;;;;;5.34;67.45;98602.56;5138650;27;1306;-88
2022/01/27 02:10:30;;;;;;;;;;;;;;;5.35;67.57;98603.38;5136879;27;1582;-88
2022/01/27 02:18:31;;;;;;;;;;;;;;;5.34;67.50;98578.56;5130248;27;1398;-89
2022/01/27 02:20:57;;;;;;;;;;;;;;;5.33;67.48;98566.25;5122052;28;1488;-88
2022/01/27 02:23:24;;;;;;;;;;;;;;;5.32;67.40;98561.94;5118382;27;1707;-88
2022/01/27 02:25:50;;;;;;;;;;;;;;;5.34;67.64;98548.38;5127873;27;1446;-89
2022/01/27 02:28:17;;;;;;;;;;;;;;;5.32;67.54;98532.59;5124025;27;1491;-88
2022/01/27 02:30:44;;;;;;;;;;;;;;;5.33;67.55;98536.09;5125460;27;1332;-88
2022/01/27 02:33:10;;;;;;;;;;;;;;;5.32;67.58;98527.25;5130226;27;1656;-89
2022/01/27 02:35:37;;;;;;;;;;;;;;;5.32;67.42;98521.91;5138775;27;1401;-88
2022/01/27 02:38:05;;;;;;;;;;;;;;;5.32;67.38;98511.22;5135542;27;1917;-89
2022/01/27 02:40:34;;;;;;;;;;;;;;;5.32;67.69;98507.75;5123633;27;1648;-88
2022/01/27 02:43:00;;;;;;;;;;;;;;;5.32;67.43;98486.41;5142793;27;1569;-89
2022/01/27 02:45:27;;;;;;;;;;;;;;;5.31;67.42;98479.44;5127676;27;1398;-89
2022/01/27 02:47:54;;;;;;;;;;;;;;;5.30;67.52;98475.97;5121696;27;1821;-89
2022/01/27 02:50:20;;;;;;;;;;;;;;;5.31;67.60;98474.13;5131934;27;1423;-89
2022/01/27 02:52:47;;;;;;;;;;;;;;;5.30;67.44;98465.31;5139313;27;1376;-88
2022/01/27 02:55:13;;;;;;;;;;;;;;;5.30;67.66;98453.81;5157739;27;1551;-89
2022/01/27 02:57:40;;;;;;;;;;;;;;;5.29;67.70;98444.97;5138423;27;1976;-88
2022/01/27 03:00:06;;;;;;;;;;;;;;;5.29;67.56;98426.28;5128746;27;1604;-89
2022/01/27 03:02:34;;;;;;;;;;;;;;;5.29;67.54;98417.47;5141900;27;1165;-89
2022/01/27 03:05:01;;;;;;;;;;;;;;;5.28;67.68;98416.66;5137164;27;1242;-89
2022/01/27 03:07:28;;;;;;;;;;;;;;;5.29;67.61;98404.13;5134053;27;1409;-88
2022/01/27 03:09:55;;;;;;;;;;;;;;;5.29;67.74;98406.78;5122932;27;1469;-88
2022/01/27 03:12:25;;;;;;;;;;;;;;;5.28;67.54;98381.97;5137471;27;1250;-88
2022/01/27 03:14:51;;;;;;;;;;;;;;;5.29;67.63;98385.44;5140754;27;1521;-88
2022/01/27 03:17:18;;;;;;;;;;;;;;;5.28;67.68;98381.97;5125236;27;1988;-88
2022/01/27 03:19:44;;;;;;;;;;;;;;;5.28;67.73;98375.81;5128323;27;1909;-89
2022/01/27 03:22:11;;;;;;;;;;;;;;;5.27;67.77;98377.69;5131932;27;2011;-88
2022/01/27 03:24:37;;;;;;;;;;;;;;;5.28;67.86;98378.50;5136228;27;1877;-88
2022/01/27 03:27:06;;;;;;;;;;;;;;;5.27;67.65;98366.22;5136491;27;1678;-89
2022/01/27 03:29:32;;;;;;;;;;;;;;;5.26;67.72;98365.38;5123275;27;1872;-88
2022/01/27 03:31:59;;;;;;;;;;;;;;;5.27;67.81;98359.00;5121239;27;1595;-89
2022/01/27 03:34:26;;;;;;;;;;;;;;;5.26;67.59;98357.38;5120452;27;1897;-88
2022/01/27 03:36:52;;;;;;;;;;;;;;;5.24;67.64;98346.94;5119366;27;1988;-88
2022/01/27 03:39:21;;;;;;;;;;;;;;;5.25;67.75;98326.41;5121202;27;1762;-89
2022/01/27 03:41:50;;;;;;;;;;;;;;;5.26;67.68;98316.53;5117347;28;1388;-88
2022/01/27 03:44:16;;;;;;;;;;;;;;;5.25;67.79;98318.38;5117975;28;1382;-89
2022/01/27 03:46:43;;;;;;;;;;;;;;;5.24;67.89;98312.25;5116442;28;1600;-90
2022/01/27 03:49:09;;;;;;;;;;;;;;;5.25;67.94;98302.38;5116882;28;1635;-88
2022/01/27 03:51:36;;;;;;;;;;;;;;;5.23;67.82;98299.97;5125274;27;1754;-88
2022/01/27 03:54:02;;;;;;;;;;;;;;;5.23;67.71;98297.28;5127220;27;1560;-88
2022/01/27 03:56:29;;;;;;;;;;;;;;;5.24;67.81;98296.25;5116816;27;1971;-88
2022/01/27 03:58:55;;;;;;;;;;;;;;;5.24;67.63;98295.44;5116907;28;1298;-87
2022/01/27 04:01:22;;;;;;;;;;;;;;;5.22;67.55;98282.31;5126583;27;1627;-89
2022/01/27 04:03:48;;;;;;;;;;;;;;;5.22;67.77;98276.97;5137423;27;1290;-89
2022/01/27 04:06:21;;;;;;;;;;;;;;;5.22;67.68;98271.63;5136499;27;1404;-88
2022/01/27 04:08:48;;;;;;;;;;;;;;;5.22;67.56;98260.97;5118054;27;1596;-88
2022/01/27 04:11:14;;;;;;;;;;;;;;;5.22;67.63;98263.63;5124254;27;1881;-89
2022/01/27 04:13:41;;;;;;;;;;;;;;;5.22;67.45;98266.31;5137119;27;1206;-89
2022/01/27 04:16:07;;;;;;;;;;;;;;;5.21;67.76;98259.34;5133495;27;1335;-89
2022/01/27 04:18:34;;;;;;;;;;;;;;;5.21;67.65;98256.69;5116564;28;1875;-88
2022/01/27 04:21:00;;;;;;;;;;;;;;;5.21;67.57;98258.56;5121208;27;1627;-89
2022/01/27 04:23:27;;;;;;;;;;;;;;;5.20;67.70;98241.69;5122482;27;1475;-88
2022/01/27 04:25:53;;;;;;;;;;;;;;;5.20;67.53;98233.69;5116322;28;1285;-89
2022/01/27 04:28:24;;;;;;;;;;;;;;;5.20;67.44;98228.34;5116447;28;1187;-90
2022/01/27 04:30:52;;;;;;;;;;;;;;;5.19;67.38;98213.41;5116252;28;1312;-89
2022/01/27 04:33:23;;;;;;;;;;;;;;;5.18;67.49;98209.13;5120319;27;1715;-89
2022/01/27 04:35:54;;;;;;;;;;;;;;;5.18;67.48;98201.13;5116291;28;1152;-88
2022/01/27 04:38:25;;;;;;;;;;;;;;;5.18;67.50;98186.97;5115855;27;1909;-88
2022/01/27 04:41:00;;;;;;;;;;;;;;;5.18;67.58;98187.78;5115383;28;1413;-89
2022/01/27 04:43:33;;;;;;;;;;;;;;;5.17;67.51;98174.66;5099259;28;1203;-89
2022/01/27 04:46:08;;;;;;;;;;;;;;;5.18;67.53;98176.31;5102079;27;1910;-88
2022/01/27 04:48:39;;;;;;;;;;;;;;;5.16;67.38;98163.19;5108627;27;1668;-89
2022/01/27 04:51:07;;;;;;;;;;;;;;;5.16;67.55;98160.53;5120140;27;1317;-89
2022/01/27 04:53:37;;;;;;;;;;;;;;;5.16;67.55;98149.84;5128830;27;1620;-89
2022/01/27 04:56:04;;;;;;;;;;;;;;;5.16;67.59;98143.72;5132912;27;1896;-88
2022/01/27 04:58:32;;;;;;;;;;;;;;;5.16;67.48;98130.38;5115457;28;1978;-89
2022/01/27 05:01:01;;;;;;;;;;;;;;;5.16;67.30;98131.16;5112245;28;1620;-90
2022/01/27 05:03:36;;;;;;;;;;;;;;;5.16;67.44;98125.03;5098593;28;1332;-88
2022/01/27 05:06:03;;;;;;;;;;;;;;;5.15;67.58;98121.56;5097909;27;1910;-89
2022/01/27 05:08:29;;;;;;;;;;;;;;;5.15;67.46;98120.75;5105336;27;1439;-89
2022/01/27 05:10:59;;;;;;;;;;;;;;;5.15;67.51;98110.09;5110743;28;1512;-88
2022/01/27 05:13:28;;;;;;;;;;;;;;;5.14;67.38;98111.91;5098625;28;1324;-89
2022/01/27 05:15:55;;;;;;;;;;;;;;;5.14;67.45;98105.78;5098415;28;1270;-88
2022/01/27 05:18:21;;;;;;;;;;;;;;;5.13;67.36;98088.16;5115387;28;1957;-87
2022/01/27 05:20:48;;;;;;;;;;;;;;;5.13;67.36;98085.50;5112433;27;1410;-90
2022/01/27 05:23:14;;;;;;;;;;;;;;;5.12;67.55;98090.03;5113817;27;1516;-89
2022/01/27 05:25:41;;;;;;;;;;;;;;;5.12;67.37;98095.38;5107057;28;1579;-88
2022/01/27 05:28:08;;;;;;;;;;;;;;;5.13;67.57;98086.28;5098287;28;1427;-88
2022/01/27 05:30:34;;;;;;;;;;;;;;;5.13;67.53;98080.16;5115106;28;1355;-89
2022/01/27 05:33:01;;;;;;;;;;;;;;;5.12;67.59;98075.88;5115632;28;1658;-89
2022/01/27 05:35:27;;;;;;;;;;;;;;;5.11;67.32;98060.91;5123955;27;1400;-89
2022/01/27 05:37:54;;;;;;;;;;;;;;;5.12;67.69;98062.53;5115711;27;1910;-89
2022/01/27 05:40:20;;;;;;;;;;;;;;;5.11;67.49;98059.03;5115479;27;1595;-89
2022/01/27 05:42:47;;;;;;;;;;;;;;;5.11;67.50;98047.56;5132123;27;1212;-88
2022/01/27 05:45:13;;;;;;;;;;;;;;;5.11;67.53;98039.56;5131731;27;1903;-88
2022/01/27 05:47:40;;;;;;;;;;;;;;;5.09;67.57;98037.16;5135233;27;1231;-88
2022/01/27 05:50:06;;;;;;;;;;;;;;;5.09;67.56;98018.47;5123127;27;1492;-88
2022/01/27 05:52:33;;;;;;;;;;;;;;;5.09;67.70;98007.81;5114913;28;1156;-89
2022/01/27 05:55:00;;;;;;;;;;;;;;;5.09;67.59;98006.97;5114902;28;1303;-88
2022/01/27 05:57:26;;;;;;;;;;;;;;;5.09;67.56;98006.97;5131087;27;2002;-89
2022/01/27 05:59:53;;;;;;;;;;;;;;;5.09;67.58;97994.47;5115040;28;1208;-89
2022/01/27 06:02:19;;;;;;;;;;;;;;;5.09;67.65;97996.31;5131898;27;2002;-88
2022/01/27 06:04:46;;;;;;;;;;;;;;;5.07;67.66;97996.56;5123169;27;1557;-90
2022/01/27 06:07:13;;;;;;;;;;;;;;;5.08;67.49;97992.84;5127084;28;1595;-89
2022/01/27 06:09:40;;;;;;;;;;;;;;;5.07;67.49;97977.88;5135492;28;1311;-89
2022/01/27 06:12:06;;;;;;;;;;;;;;;5.07;67.40;97983.22;5129152;28;1948;-88
2022/01/27 06:14:33;;;;;;;;;;;;;;;5.08;67.39;97986.69;5135234;28;1324;-88
2022/01/27 06:17:00;;;;;;;;;;;;;;;5.07;67.55;97977.09;5131724;28;1897;-89
2022/01/27 06:19:27;;;;;;;;;;;;;;;5.06;67.56;97965.59;5114442;28;1424;-89
2022/01/27 06:21:54;;;;;;;;;;;;;;;5.06;67.68;97970.13;5115103;28;1616;-89
2022/01/27 06:24:21;;;;;;;;;;;;;;;5.06;67.54;97954.94;5133037;28;1971;-89
2022/01/27 06:26:47;;;;;;;;;;;;;;;5.07;67.39;97953.06;5125753;28;1976;-88
2022/01/27 06:29:13;;;;;;;;;;;;;;;5.05;67.40;97945.31;5135038;28;1258;-87
2022/01/27 06:31:40;;;;;;;;;;;;;;;5.05;67.59;97947.97;5132909;28;1904;-89
2022/01/27 06:34:07;;;;;;;;;;;;;;;5.04;67.67;97957.03;5128088;28;1500;-89
2022/01/27 06:36:33;;;;;;;;;;;;;;;5.03;67.58;97952.75;5128507;28;1336;-90
2022/01/27 06:39:00;;;;;;;;;;;;;;;5.04;67.53;97950.91;5124867;28;1948;-88
2022/01/27 06:41:26;;;;;;;;;;;;;;;5.03;67.47;97947.44;5116840;28;1430;-88
2022/01/27 06:43:54;;;;;;;;;;;;;;;5.03;67.53;97950.09;5114254;28;1175;-88
2022/01/27 06:46:20;;;;;;;;;;;;;;;5.03;67.57;97946.59;5131112;27;1622;-89
2022/01/27 06:48:47;;;;;;;;;;;;;;;5.01;67.55;97937.00;5114836;28;1313;-89
2022/01/27 06:51:13;;;;;;;;;;;;;;;5.02;67.65;97929.78;5113995;28;1179;-88
2022/01/27 06:53:41;;;;;;;;;;;;;;;5.01;67.62;97925.53;5121599;28;1572;-88
2022/01/27 06:56:08;;;;;;;;;;;;;;;5.01;67.52;97922.84;5124086;28;1541;-88
2022/01/27 06:58:36;;;;;;;;;;;;;;;5.02;67.55;97919.13;5115363;28;1972;-88
2022/01/27 07:01:02;;;;;;;;;;;;;;;5.00;67.67;97908.72;5133654;27;1375;-88
2022/01/27 07:03:29;;;;;;;;;;;;;;;5.00;67.42;97906.03;5134872;28;1209;-88
2022/01/27 07:05:55;;;;;;;;;;;;;;;5.00;67.72;97900.72;5134480;28;1376;-89
2022/01/27 07:08:22;;;;;;;;;;;;;;;5.00;67.56;97906.03;5132947;28;1518;-88
2022/01/27 07:10:48;;;;;;;;;;;;;;;4.99;67.48;97922.28;5134311;28;1329;-88
2022/01/27 07:13:15;;;;;;;;;;;;;;;4.99;67.52;97920.41;5136856;27;1179;-87
2022/01/27 07:15:41;;;;;;;;;;;;;;;4.99;67.63;97927.63;5122002;27;1624;-88
2022/01/27 07:18:09;;;;;;;;;;;;;;;4.97;67.62;97922.53;5138072;27;1906;-88
2022/01/27 07:20:36;;;;;;;;;;;;;;;4.97;67.66;97925.22;5138527;27;1341;-89
2022/01/27 07:23:02;;;;;;;;;;;;;;;4.97;67.56;97917.22;5138318;27;1174;-89
2022/01/27 07:25:29;;;;;;;;;;;;;;;4.96;67.57;97901.44;5126630;27;1446;-88
2022/01/27 07:27:56;;;;;;;;;;;;;;;4.98;67.63;97899.34;5120572;27;1304;-88
2022/01/27 07:30:22;;;;;;;;;;;;;;;4.95;67.60;97895.31;5120926;27;1274;-88
2022/01/27 07:32:49;;;;;;;;;;;;;;;4.96;67.57;97896.09;5121001;27;1272;-88
2022/01/27 07:35:16;;;;;;;;;;;;;;;4.95;67.58;97900.63;5135997;27;1375;-87
2022/01/27 07:37:44;;;;;;;;;;;;;;;4.95;67.33;97897.16;5123862;27;1987;-87
2022/01/27 07:40:11;;;;;;;;;;;;;;;4.95;67.53;97899.84;5117089;27;1589;-88
2022/01/27 07:42:38;;;;;;;;;;;;;;;4.94;67.59;97898.19;5130343;27;1500;-88
2022/01/27 07:45:05;;;;;;;;;;;;;;;4.93;67.56;97888.59;5135957;27;1186;-88
2022/01/27 07:47:31;;;;;;;;;;;;;;;4.93;67.46;97881.41;5137645;27;1233;-89
2022/01/27 07:49:58;;;;;;;;;;;;;;;4.92;67.57;97866.47;5118217;27;1201;-88
2022/01/27 07:52:24;;;;;;;;;;;;;;;4.92;67.59;97853.13;5117392;27;1677;-88
2022/01/27 07:54:51;;;;;;;;;;;;;;;4.91;67.61;97856.84;5135761;27;1429;-88
2022/01/27 07:57:17;;;;;;;;;;;;;;;4.93;67.53;97856.59;5117537;27;1976;-88
2022/01/27 07:59:44;;;;;;;;;;;;;;;4.92;67.37;97852.31;5132988;27;1313;-89
2022/01/27 08:02:11;;;;;;;;;;;;;;;4.91;67.58;97845.34;5117336;28;1369;-88
2022/01/27 08:04:37;;;;;;;;;;;;;;;4.90;67.48;97843.75;5099841;28;1179;-87
2022/01/27 08:07:04;;;;;;;;;;;;;;;4.89;67.50;97836.81;5099713;28;1556;-88
2022/01/27 08:09:31;;;;;;;;;;;;;;;4.89;67.51;97826.16;5116882;28;1196;-88
2022/01/27 08:11:58;;;;;;;;;;;;;;;4.89;67.56;97818.16;5118918;27;1895;-88
2022/01/27 08:14:24;;;;;;;;;;;;;;;4.88;67.41;97825.34;5137520;27;1167;-88
2022/01/27 08:16:51;;;;;;;;;;;;;;;4.88;67.54;97827.19;5117428;27;1298;-89
2022/01/27 08:19:17;;;;;;;;;;;;;;;4.88;67.53;97832.50;5116673;28;1913;-88
2022/01/27 08:21:44;;;;;;;;;;;;;;;4.88;67.46;97819.19;5118664;27;1633;-89
2022/01/27 08:24:11;;;;;;;;;;;;;;;4.86;67.52;97811.44;5135263;27;1197;-88
2022/01/27 08:26:40;;;;;;;;;;;;;;;4.86;67.56;97806.13;5120372;27;1414;-88
2022/01/27 08:29:14;;;;;;;;;;;;;;;4.86;67.63;97818.66;5120625;28;1172;-91
2022/01/27 08:31:55;;;;;;;;;;;;;;;4.86;67.48;97810.66;5121491;27;1516;-90
2022/01/27 08:34:29;;;;;;;;;;;;;;;4.84;67.45;97810.88;5136955;27;2285;-89
2022/01/27 08:36:56;;;;;;;;;;;;;;;4.85;67.42;97803.69;5133226;27;1310;-89
2022/01/27 08:39:22;;;;;;;;;;;;;;;4.84;67.63;97810.09;5126745;27;2053;-88
2022/01/27 08:41:49;;;;;;;;;;;;;;;4.83;67.74;97801.28;5127640;27;1490;-88
2022/01/27 08:44:15;;;;;;;;;;;;;;;4.82;67.49;97799.66;5131827;27;1709;-88
2022/01/27 08:46:42;;;;;;;;;;;;;;;4.82;67.66;97788.19;5115441;27;2535;-89
2022/01/27 08:49:09;;;;;;;;;;;;;;;4.81;67.65;97782.03;5134297;27;1304;-88
2022/01/27 08:51:36;;;;;;;;;;;;;;;4.81;67.48;97784.72;5098138;28;1518;-88
2022/01/27 08:54:02;;;;;;;;;;;;;;;4.81;67.54;97775.91;5117169;27;1405;-88
2022/01/27 08:56:29;;;;;;;;;;;;;;;4.80;67.58;97769.78;5122837;27;1768;-88
2022/01/27 08:58:56;;;;;;;;;;;;;;;4.80;67.56;97776.97;5124056;27;2074;-88
2022/01/27 09:01:24;;;;;;;;;;;;;;;4.78;67.67;97775.34;5118755;27;1472;-88
2022/01/27 09:03:56;;;;;;;;;;;;;;;4.78;67.52;97786.00;5124347;27;1845;-89
2022/01/27 09:06:24;;;;;;;;;;;;;;;4.78;67.32;97787.88;5136235;27;1214;-90
2022/01/27 09:08:52;;;;;;;;;;;;;;;4.78;67.54;97793.22;5136518;27;1313;-89
2022/01/27 09:11:19;;;;;;;;;;;;;;;4.78;67.42;97790.53;5134013;27;1418;-89
2022/01/27 09:13:45;;;;;;;;;;;;;;;4.76;67.56;97796.16;5136367;27;1347;-90
2022/01/27 09:16:12;;;;;;;;;;;;;;;4.77;67.65;97791.63;5135318;27;1725;-90
2022/01/27 09:18:38;;;;;;;;;;;;;;;4.76;67.57;97796.16;5115712;27;1976;-90
2022/01/27 09:21:09;;;;;;;;;;;;;;;4.76;67.54;97797.97;5115155;28;1786;-90
2022/01/27 09:23:35;;;;;;;;;;;;;;;4.74;67.61;97798.25;5115374;28;1206;-89
2022/01/27 09:26:05;;;;;;;;;;;;;;;4.75;67.72;97793.72;5114967;28;1607;-89
2022/01/27 09:28:32;;;;;;;;;;;;;;;4.74;67.64;97784.09;5131322;27;1950;-91
2022/01/27 09:30:59;;;;;;;;;;;;;;;4.74;67.52;97786.78;5132330;28;1223;-92
2022/01/27 09:33:25;;;;;;;;;;;;;;;4.74;67.70;97782.25;5117503;28;1529;-90
2022/01/27 09:35:52;;;;;;;;;;;;;;;4.72;67.57;97781.69;5117960;28;1797;-91
2022/01/27 09:38:19;;;;;;;;;;;;;;;4.71;67.67;97781.94;5134265;27;1978;-90
2022/01/27 09:40:48;;;;;;;;;;;;;;;4.72;67.62;97778.22;5131480;27;1943;-90
2022/01/27 09:43:15;;;;;;;;;;;;;;;4.71;67.59;97776.59;5129771;27;1541;-89
2022/01/27 09:45:42;;;;;;;;;;;;;;;4.71;67.70;97777.41;5114733;28;1998;-90
2022/01/27 09:48:14;;;;;;;;;;;;;;;4.71;67.72;97789.94;5126837;27;1464;-90
2022/01/27 09:50:49;;;;;;;;;;;;;;;4.70;67.63;97797.13;5149615;27;1515;-90
2022/01/27 09:53:16;;;;;;;;;;;;;;;4.70;67.54;97812.31;5114907;28;1708;-89
2022/01/27 09:55:43;;;;;;;;;;;;;;;4.68;67.61;97799.25;5122332;27;1666;-90
2022/01/27 09:58:09;;;;;;;;;;;;;;;4.69;67.66;97798.19;5134334;27;1978;-91
2022/01/27 10:00:36;;;;;;;;;;;;;;;4.70;67.55;97804.31;5134751;27;1330;-89
2022/01/27 10:03:02;;;;;;;;;;;;;;;4.69;67.58;97806.19;5136096;27;1503;-90
2022/01/27 10:05:29;;;;;;;;;;;;;;;4.68;67.63;97809.91;5131624;27;1468;-90
2022/01/27 10:07:55;;;;;;;;;;;;;;;4.69;67.52;97816.03;5121369;27;1219;-90
2022/01/27 10:10:22;;;;;;;;;;;;;;;4.70;67.54;97813.09;5112088;27;1289;-91
2022/01/27 10:12:54;;;;;;;;;;;;;;;4.71;67.49;97812.06;5122233;27;1791;-90
2022/01/27 10:15:36;;;;;;;;;;;;;;;4.71;67.47;97819.28;5120107;28;2069;-89
2022/01/27 10:18:03;;;;;;;;;;;;;;;4.71;67.45;97816.59;5117219;28;1961;-90
2022/01/27 10:20:34;;;;;;;;;;;;;;;4.71;67.55;97820.06;5116415;28;1151;-89
2022/01/27 10:23:01;;;;;;;;;;;;;;;4.70;67.46;97813.09;5126320;28;1984;-91
2022/01/27 10:25:28;;;;;;;;;;;;;;;4.71;67.59;97805.94;5125412;28;2230;-89
2022/01/27 10:28:09;;;;;;;;;;;;;;;4.72;67.49;97812.88;5129516;28;1482;-91
2022/01/27 10:36:54;;;;;;;;;;;;;;;4.72;67.68;97823.53;5142818;27;1580;-92
2022/01/27 10:39:55;;;;;;;;;;;;;;;4.71;67.61;97827.28;5133786;28;1929;-92
2022/01/27 10:45:56;;;;;;;;;;;;;;;4.71;67.60;97828.06;5136060;28;691;-91
2022/01/27 10:48:31;;;;;;;;;;;;;;;4.71;67.71;97822.75;5133140;28;1389;-91
2022/01/27 10:51:06;;;;;;;;;;;;;;;4.72;67.82;97829.69;5131432;28;1190;-90
2022/01/27 10:53:36;;;;;;;;;;;;;;;4.73;67.67;97841.94;5140474;27;1273;-92
2022/01/27 10:56:03;;;;;;;;;;;;;;;4.72;67.54;97828.88;5151554;27;1226;-91
2022/01/27 10:58:35;;;;;;;;;;;;;;;4.76;67.61;97841.47;5146944;27;1882;-92
2022/01/27 11:01:07;;;;;;;;;;;;;;;4.75;67.68;97847.84;5132531;27;1395;-91
2022/01/27 11:03:35;;;;;;;;;;;;;;;4.76;67.65;97852.16;5132062;27;1392;-90
2022/01/27 11:06:02;;;;;;;;;;;;;;;4.74;67.36;97840.91;5121191;28;1249;-91
2022/01/27 11:08:30;;;;;;;;;;;;;;;4.76;67.84;97848.66;5126707;28;1323;-91
2022/01/27 11:10:57;;;;;;;;;;;;;;;4.77;67.81;97852.94;5130170;27;1579;-90
2022/01/27 11:13:24;;;;;;;;;;;;;;;4.77;67.73;97852.94;5117701;28;1327;-90
2022/01/27 11:18:36;;;;;;;;;;;;;;;4.76;67.83;97840.66;5029173;28;1978;-94
2022/01/27 11:26:43;;;;;;;;;;;;;;;4.44;67.81;97820.00;5850922;22;2893;-90
2022/01/27 11:34:32;;;;;;;;;;;;;;;4.83;67.89;97885.81;5008875;28;1477;-90
2022/01/27 11:36:58;;;;;;;;;;;;;;;4.84;67.82;97882.09;5011393;28;1738;-90
2022/01/27 11:39:25;;;;;;;;;;;;;;;4.84;67.79;97890.09;4982722;28;1973;-90
2022/01/27 11:41:53;;;;;;;;;;;;;;;4.85;67.96;97895.16;4988228;28;1627;-90
2022/01/27 11:44:20;;;;;;;;;;;;;;;4.85;67.85;97895.16;4981273;28;1244;-91
2022/01/27 11:46:46;;;;;;;;;;;;;;;4.86;68.00;97893.31;4976364;28;1374;-90
2022/01/27 11:49:13;;;;;;;;;;;;;;;4.85;67.70;97900.50;4981993;28;1229;-91
2022/01/27 11:51:39;;;;;;;;;;;;;;;4.86;67.91;97910.13;4981522;28;1426;-91
2022/01/27 11:54:07;;;;;;;;;;;;;;;4.88;68.04;97910.69;5023233;23;3665;-91
2022/01/27 11:56:37;;;;;;;;;;;;;;;4.88;68.07;97913.38;5003461;28;1190;-91
2022/01/27 11:59:04;;;;;;;;;;;;;;;4.89;68.10;97919.50;4997512;28;1975;-90
2022/01/27 12:01:31;;;;;;;;;;;;;;;4.90;68.07;97923.78;4982350;28;1254;-91
2022/01/27 12:03:57;;;;;;;;;;;;;;;4.90;68.16;97924.56;5000023;28;1288;-91
2022/01/27 12:06:24;;;;;;;;;;;;;;;4.91;68.20;97928.03;4997368;28;1824;-89
2022/01/27 12:08:51;;;;;;;;;;;;;;;4.92;68.00;97927.00;4981636;28;1240;-90
2022/01/27 12:11:17;;;;;;;;;;;;;;;4.92;68.05;97929.66;4966898;28;1430;-90
2022/01/27 12:13:48;;;;;;;;;;;;;;;4.93;68.09;97931.28;4969939;28;1399;-91
2022/01/27 12:16:25;;;;;;;;;;;;;;;4.94;68.08;97930.22;4980433;28;2012;-90
2022/01/27 12:18:52;;;;;;;;;;;;;;;4.94;68.02;97941.72;4983312;28;1906;-91
2022/01/27 12:21:19;;;;;;;;;;;;;;;4.96;68.19;97963.59;4994618;28;2114;-90
2022/01/27 12:23:45;;;;;;;;;;;;;;;4.97;68.13;97967.06;4983191;28;1685;-90
2022/01/27 12:26:12;;;;;;;;;;;;;;;4.96;68.19;97970.78;4976650;28;1585;-90
2022/01/27 12:28:40;;;;;;;;;;;;;;;4.97;68.32;97977.72;4982001;28;1805;-91
2022/01/27 12:31:07;;;;;;;;;;;;;;;4.99;68.23;97994.31;4994686;28;1660;-91
2022/01/27 12:33:33;;;;;;;;;;;;;;;4.99;67.96;97996.97;4983324;28;1664;-91
2022/01/27 12:36:00;;;;;;;;;;;;;;;5.01;68.37;98008.22;4979301;28;2071;-91
2022/01/27 12:38:26;;;;;;;;;;;;;;;5.01;68.31;98018.88;4997629;28;1914;-88
2022/01/27 12:40:53;;;;;;;;;;;;;;;5.00;68.36;98020.75;4982242;28;1576;-88
2022/01/27 12:43:21;;;;;;;;;;;;;;;5.03;68.34;98037.31;4984920;28;1871;-90
2022/01/27 12:45:48;;;;;;;;;;;;;;;5.04;68.29;98044.28;4975315;28;2052;-90
2022/01/27 12:48:15;;;;;;;;;;;;;;;5.04;68.31;98049.59;4980318;28;1340;-91
2022/01/27 12:50:42;;;;;;;;;;;;;;;5.05;68.34;98052.03;4975518;28;1462;-90
2022/01/27 12:53:11;;;;;;;;;;;;;;;5.05;68.39;98059.22;4984206;28;1368;-91
2022/01/27 12:55:37;;;;;;;;;;;;;;;5.05;68.33;98064.56;4980046;28;1654;-90
2022/01/27 12:58:06;;;;;;;;;;;;;;;5.06;68.29;98076.84;4979067;28;1592;-89
2022/01/27 13:00:33;;;;;;;;;;;;;;;5.07;68.46;98079.28;4965451;28;1989;-90
2022/01/27 13:02:59;;;;;;;;;;;;;;;5.08;68.47;98082.75;4981533;28;1316;-91
2022/01/27 13:05:26;;;;;;;;;;;;;;;5.07;68.57;98100.63;4980801;28;1295;-89
2022/01/27 13:07:52;;;;;;;;;;;;;;;5.09;68.43;98103.03;4964171;28;1774;-91
2022/01/27 13:10:20;;;;;;;;;;;;;;;5.09;68.33;98117.19;4974068;28;1573;-90
2022/01/27 13:12:50;;;;;;;;;;;;;;;5.09;68.75;98117.19;4979604;28;1228;-90
2022/01/27 13:15:17;;;;;;;;;;;;;;;5.09;68.56;98132.38;4977865;28;1327;-90
2022/01/27 13:17:49;;;;;;;;;;;;;;;5.11;68.49;98136.41;4978602;28;1635;-90
2022/01/27 13:20:19;;;;;;;;;;;;;;;5.11;68.51;98149.75;4979572;28;1910;-90
2022/01/27 13:22:46;;;;;;;;;;;;;;;5.12;68.42;98153.25;4977753;28;1977;-90
2022/01/27 13:25:14;;;;;;;;;;;;;;;5.11;68.43;98165.78;4977290;28;1997;-90
2022/01/27 13:27:40;;;;;;;;;;;;;;;5.12;68.38;98167.41;4969784;28;1761;-89
2022/01/27 13:30:07;;;;;;;;;;;;;;;5.13;68.51;98181.56;4972464;28;1895;-90
2022/01/27 13:32:34;;;;;;;;;;;;;;;5.11;68.32;98184.44;4978832;28;1617;-90
2022/01/27 13:35:00;;;;;;;;;;;;;;;5.13;68.66;98203.69;4981351;28;1910;-90
2022/01/27 13:37:27;;;;;;;;;;;;;;;5.13;68.69;98209.03;4983843;28;1290;-90
2022/01/27 13:42:38;;;;;;;;;;;;;;;5.14;68.46;98209.84;4979538;28;1270;-90
2022/01/27 13:45:04;;;;;;;;;;;;;;;5.14;68.39;98220.50;4979411;28;1204;-89
2022/01/27 13:47:32;;;;;;;;;;;;;;;5.14;68.58;98224.00;4971513;28;1798;-91
2022/01/27 13:52:40;;;;;;;;;;;;;;;5.15;68.59;98251.50;5130092;23;3852;-91
2022/01/27 13:55:07;;;;;;;;;;;;;;;5.15;68.75;98257.66;5024473;28;1632;-91
2022/01/27 13:57:35;;;;;;;;;;;;;;;5.17;68.63;98270.72;5005666;28;1611;-91
2022/01/27 14:00:09;;;;;;;;;;;;;;;5.14;68.62;98280.03;5026056;28;1906;-92